Time;durP1;ratioP1;P1;durP2;ratioP2;P2;SDS_P1;SDS_P2;PMS_P1;PMS_P2;Temp;Humidity;BMP_temperature;BMP_pressure;BME280_temperature;BME280_humidity;BME280_pressure;Samples;Min_cycle;Max_cycle;Signal;HPM_P1;HPM_P2
2022/05/13 00:02:08;;;;;;;5.40;2.40;;;;;;;13.49;55.41;98543.48;106339;1278;22547;-81
2022/05/13 00:04:36;;;;;;;11.00;2.60;;;;;;;13.47;55.03;98553.65;106224;1278;137670;-81
2022/05/13 00:07:05;;;;;;;12.70;2.70;;;;;;;13.39;55.99;98546.63;106241;1278;22608;-81
2022/05/13 00:12:14;;;;;;;9.30;2.60;;;;;;;13.26;56.45;98519.48;106863;1277;137806;-81
2022/05/13 00:14:43;;;;;;;5.50;2.10;;;;;;;13.24;56.51;98514.36;106550;1277;22573;-81
2022/05/13 00:17:12;;;;;;;5.10;2.30;;;;;;;13.22;56.24;98513.26;106201;1277;137976;-81
2022/05/13 00:19:39;;;;;;;6.40;1.80;;;;;;;13.21;55.75;98514.17;106898;1279;24256;-80
2022/05/13 00:22:06;;;;;;;6.20;2.00;;;;;;;13.21;55.49;98512.71;106334;1278;22596;-80
2022/05/13 00:24:33;;;;;;;7.40;1.80;;;;;;;13.21;54.85;98508.11;106220;1278;138553;-81
2022/05/13 00:27:00;;;;;;;8.70;1.80;;;;;;;13.21;56.19;98502.36;106548;1278;23227;-81
2022/05/13 00:29:27;;;;;;;4.50;2.20;;;;;;;13.20;56.22;98505.70;106669;1277;137862;-82
2022/05/13 00:31:54;;;;;;;2.80;1.70;;;;;;;13.19;56.04;98511.49;106360;1277;24232;-82
2022/05/13 00:34:21;;;;;;;6.30;1.80;;;;;;;13.11;57.37;98513.28;106398;1278;22590;-82
2022/05/13 00:36:48;;;;;;;8.30;2.40;;;;;;;12.89;57.98;98506.36;106451;1277;137713;-82
2022/05/13 00:39:29;;;;;;;4.60;2.10;;;;;;;12.78;58.23;98496.85;106536;1277;22609;-82
2022/05/13 00:42:11;;;;;;;4.40;2.00;;;;;;;12.70;58.22;98494.37;106431;1277;138188;-81
2022/05/13 00:44:39;;;;;;;2.60;1.80;;;;;;;12.67;57.99;98497.02;106628;1277;22853;-82
2022/05/13 00:47:06;;;;;;;6.50;1.80;;;;;;;12.67;57.62;98504.99;105926;1277;137585;-81
2022/05/13 00:49:36;;;;;;;5.90;2.10;;;;;;;12.67;58.02;98505.75;106212;1277;22721;-81
2022/05/13 00:52:17;;;;;;;5.50;1.70;;;;;;;12.63;58.38;98508.52;106433;1277;22556;-81
2022/05/13 00:54:45;;;;;;;4.60;1.70;;;;;;;12.58;58.97;98505.84;105901;1277;137705;-81
2022/05/13 00:57:15;;;;;;;10.20;2.00;;;;;;;12.47;59.24;98494.02;106303;1277;24566;-81
2022/05/13 00:59:45;;;;;;;5.50;1.90;;;;;;;12.39;59.04;98497.27;106314;1277;137822;-81
2022/05/13 01:02:12;;;;;;;3.20;1.60;;;;;;;12.33;59.47;98500.15;106186;1277;24332;-81
2022/05/13 01:04:40;;;;;;;6.00;1.60;;;;;;;12.30;58.92;98501.26;106251;1277;138255;-82
2022/05/13 01:07:16;;;;;;;5.00;1.90;;;;;;;12.27;58.52;98494.66;106553;1277;22710;-81
2022/05/13 01:10:00;;;;;;;5.00;1.80;;;;;;;12.25;58.88;98488.48;105971;1277;25319;-82
2022/05/13 01:12:35;;;;;;;7.80;1.60;;;;;;;12.24;58.79;98497.42;105848;1277;137676;-81
2022/05/13 01:15:18;;;;;;;5.30;1.80;;;;;;;12.23;58.07;98498.83;106202;1277;22598;-81
2022/05/13 01:20:48;;;;;;;5.10;1.70;;;;;;;12.24;58.93;98493.75;106179;1277;23907;-82
2022/05/13 01:23:21;;;;;;;6.60;1.60;;;;;;;12.23;59.76;98487.20;106213;1277;138321;-82
2022/05/13 01:25:56;;;;;;;4.90;1.40;;;;;;;12.24;59.11;98492.62;106749;1277;25330;-82
2022/05/13 01:28:27;;;;;;;4.60;1.60;;;;;;;12.25;57.76;98492.46;106405;1277;25260;-82
2022/05/13 01:30:58;;;;;;;6.10;1.60;;;;;;;12.28;58.55;98497.34;105982;1277;137575;-82
2022/05/13 01:33:29;;;;;;;4.40;1.40;;;;;;;12.28;58.80;98495.77;105884;1279;26514;-82
2022/05/13 01:36:04;;;;;;;3.40;1.60;;;;;;;12.28;59.25;98500.64;106335;1277;138153;-82
2022/05/13 01:38:35;;;;;;;6.80;2.10;;;;;;;12.28;60.09;98494.85;106171;1277;22648;-82
2022/05/13 01:41:05;;;;;;;5.50;1.60;;;;;;;12.27;60.25;98481.46;106158;1277;137672;-82
2022/05/13 01:43:35;;;;;;;4.80;1.60;;;;;;;12.26;59.85;98473.53;105745;1278;25429;-82
2022/05/13 01:46:03;;;;;;;6.40;2.10;;;;;;;12.26;60.18;98466.59;106289;1277;22319;-81
2022/05/13 01:48:31;;;;;;;4.10;1.60;;;;;;;12.27;60.77;98469.55;106235;1277;137957;-82
2022/05/13 01:50:58;;;;;;;3.80;1.60;;;;;;;12.29;60.76;98478.04;106054;1277;23071;-81
2022/05/13 01:53:26;;;;;;;3.80;1.40;;;;;;;12.30;60.70;98474.45;106431;1278;137733;-81
2022/05/13 01:55:54;;;;;;;6.90;1.50;;;;;;;12.33;60.34;98478.41;106172;1277;24126;-81
2022/05/13 01:58:35;;;;;;;4.50;1.40;;;;;;;12.34;59.43;98482.46;106356;1277;137919;-81
2022/05/13 02:01:06;;;;;;;3.20;1.40;;;;;;;12.37;59.42;98477.95;106204;1277;25333;-81
2022/05/13 02:03:47;;;;;;;6.00;1.80;;;;;;;12.39;58.85;98475.52;106293;1277;22570;-81
2022/05/13 02:06:22;;;;;;;5.20;2.00;;;;;;;12.41;58.50;98470.52;106137;1278;138376;-81
2022/05/13 02:08:52;;;;;;;5.30;2.10;;;;;;;12.43;58.84;98467.10;106136;1280;22569;-81
2022/05/13 02:11:21;;;;;;;4.20;1.30;;;;;;;12.45;58.99;98453.42;106214;1280;137802;-81
2022/05/13 02:13:49;;;;;;;;;;;;;;;12.46;58.97;98443.98;106297;1278;22519;-81
2022/05/13 02:16:17;;;;;;;8.70;1.60;;;;;;;12.47;59.75;98447.05;106572;1277;23343;-81
2022/05/13 02:18:47;;;;;;;4.90;2.00;;;;;;;12.49;59.70;98448.70;106345;1276;137512;-81
2022/05/13 02:21:28;;;;;;;3.30;1.50;;;;;;;12.52;58.55;98455.83;106346;1278;23050;-81
2022/05/13 02:23:55;;;;;;;3.60;1.60;;;;;;;12.56;59.01;98465.86;106502;1277;138355;-81
2022/05/13 02:26:22;;;;;;;4.00;1.70;;;;;;;12.47;60.79;98470.70;106555;1277;25264;-81
2022/05/13 02:28:49;;;;;;;4.10;1.50;;;;;;;12.33;61.05;98481.42;106165;1277;138913;-82
2022/05/13 02:31:17;;;;;;;5.60;1.60;;;;;;;12.25;61.27;98478.60;106234;1278;22681;-82
2022/05/13 02:33:44;;;;;;;8.10;1.90;;;;;;;12.24;61.63;98473.34;106363;1277;24288;-82
2022/05/13 02:36:13;;;;;;;4.40;1.80;;;;;;;12.24;61.73;98468.05;106098;1277;138034;-82
2022/05/13 02:38:40;;;;;;;4.00;1.50;;;;;;;12.27;61.52;98469.23;106544;1277;24233;-82
2022/05/13 02:41:13;;;;;;;4.10;1.60;;;;;;;12.32;62.03;98470.26;106200;1277;138238;-84
2022/05/13 02:43:41;;;;;;;5.40;1.40;;;;;;;12.38;61.88;98461.26;105778;1278;22625;-82
2022/05/13 02:46:09;;;;;;;2.70;1.60;;;;;;;12.43;61.93;98460.66;106259;1277;23775;-82
2022/05/13 02:48:36;;;;;;;3.50;1.50;;;;;;;12.50;61.69;98458.44;106069;1278;140921;-82
2022/05/13 02:51:07;;;;;;;7.40;1.80;;;;;;;12.57;61.49;98458.95;106090;1277;24285;-82
2022/05/13 02:53:36;;;;;;;4.80;1.40;;;;;;;12.63;61.14;98458.30;106281;1277;137743;-82
2022/05/13 02:56:03;;;;;;;6.90;1.60;;;;;;;12.67;60.81;98453.41;106055;1277;23040;-83
2022/05/13 02:58:30;;;;;;;4.10;1.30;;;;;;;12.72;60.02;98455.64;106148;1278;22558;-83
2022/05/13 03:00:57;;;;;;;5.50;2.10;;;;;;;12.77;60.23;98461.27;106167;1280;137676;-82
2022/05/13 03:03:30;;;;;;;3.50;1.50;;;;;;;12.74;61.57;98466.32;106332;1280;22545;-82
2022/05/13 03:05:59;;;;;;;3.30;1.50;;;;;;;12.63;61.68;98463.81;106066;1278;137705;-82
2022/05/13 03:08:41;;;;;;;5.20;2.00;;;;;;;12.60;62.03;98456.46;106281;1278;22778;-82
2022/05/13 03:11:08;;;;;;;7.10;1.90;;;;;;;12.58;61.88;98455.29;106357;1278;137723;-81
2022/05/13 03:13:36;;;;;;;4.20;1.60;;;;;;;12.57;62.09;98455.45;105989;1279;22571;-81
2022/05/13 03:16:08;;;;;;;9.70;2.20;;;;;;;12.58;62.43;98452.99;106210;1277;22540;-81
2022/05/13 03:18:39;;;;;;;7.90;1.80;;;;;;;12.58;62.12;98451.58;106195;1277;138358;-81
2022/05/13 03:21:08;;;;;;;3.60;1.40;;;;;;;12.59;61.77;98455.40;106100;1277;25327;-81
2022/05/13 03:23:35;;;;;;;6.00;1.90;;;;;;;12.59;61.36;98457.60;106284;1277;137731;-82
2022/05/13 03:26:02;;;;;;;7.70;2.00;;;;;;;12.61;61.41;98456.69;106488;1277;24293;-81
2022/05/13 03:28:34;;;;;;;7.80;2.50;;;;;;;12.64;61.38;98457.38;106380;1277;30703;-82
2022/05/13 03:31:05;;;;;;;5.10;1.50;;;;;;;12.66;62.01;98456.80;106465;1277;137408;-82
2022/05/13 03:33:33;;;;;;;7.20;1.80;;;;;;;12.68;62.60;98455.00;106426;1277;22598;-82
2022/05/13 03:36:00;;;;;;;6.90;2.90;;;;;;;12.71;62.88;98456.56;105984;1277;138092;-81
2022/05/13 03:38:27;;;;;;;7.50;1.70;;;;;;;12.70;62.91;98458.96;106323;1278;22545;-81
2022/05/13 03:40:57;;;;;;;7.00;1.70;;;;;;;12.66;62.80;98457.83;106090;1278;138492;-81
2022/05/13 03:43:24;;;;;;;6.20;2.00;;;;;;;12.62;63.07;98455.27;106101;1280;23968;-81
2022/05/13 03:45:54;;;;;;;7.30;1.90;;;;;;;12.65;63.03;98459.52;106310;1280;22563;-81
2022/05/13 03:48:22;;;;;;;6.30;1.80;;;;;;;12.69;63.40;98463.21;105938;1278;137760;-82
2022/05/13 03:50:49;;;;;;;4.20;1.70;;;;;;;12.73;63.17;98464.39;106054;1277;25276;-82
2022/05/13 03:53:16;;;;;;;7.20;1.80;;;;;;;12.77;63.82;98466.79;106336;1277;137828;-82
2022/05/13 03:55:45;;;;;;;4.70;2.00;;;;;;;12.79;63.68;98463.63;106403;1277;25920;-82
2022/05/13 03:58:13;;;;;;;8.10;1.90;;;;;;;12.81;63.26;98466.86;106688;1278;22555;-82
2022/05/13 04:00:43;;;;;;;8.50;1.90;;;;;;;12.83;63.27;98465.80;106062;1278;138187;-82
2022/05/13 04:03:11;;;;;;;9.50;2.20;;;;;;;12.86;63.31;98464.63;106210;1278;22619;-82
2022/05/13 04:11:14;;;;;;;11.60;2.80;;;;;;;12.98;63.85;98472.60;106017;1278;138107;-82
2022/05/13 04:16:36;;;;;;;20.70;3.20;;;;;;;13.06;62.52;98480.66;106028;1277;25330;-82
2022/05/13 04:19:06;;;;;;;7.50;2.20;;;;;;;13.08;63.06;98476.02;106235;1277;137891;-83
2022/05/13 04:21:36;;;;;;;8.20;2.30;;;;;;;13.11;63.27;98472.77;106137;1280;22544;-83
2022/05/13 04:24:06;;;;;;;4.60;1.80;;;;;;;13.15;63.65;98475.74;106832;1277;138181;-82
2022/05/13 04:26:33;;;;;;;4.30;2.20;;;;;;;13.20;63.63;98473.77;106289;1277;22540;-83
2022/05/13 04:29:03;;;;;;;4.70;1.80;;;;;;;13.30;64.33;98475.21;106198;1277;138473;-83
2022/05/13 04:31:37;;;;;;;6.50;2.50;;;;;;;13.41;64.35;98479.25;106144;1279;24047;-83
2022/05/13 04:34:06;;;;;;;10.00;2.50;;;;;;;13.53;63.40;98481.30;106223;1277;22560;-82
2022/05/13 04:36:33;;;;;;;5.60;1.80;;;;;;;13.65;62.22;98482.52;106492;1277;138109;-83
2022/05/13 04:39:13;;;;;;;5.20;1.70;;;;;;;13.76;62.67;98486.48;106340;1279;23495;-83
2022/05/13 04:44:21;;;;;;;6.60;1.90;;;;;;;13.95;63.23;98482.69;106105;1278;25318;-83
2022/05/13 04:46:48;;;;;;;8.80;2.10;;;;;;;14.07;63.58;98480.11;106134;1278;137786;-83
2022/05/13 04:49:15;;;;;;;4.10;2.10;;;;;;;14.17;62.60;98480.15;106696;1278;24336;-83
2022/05/13 04:51:42;;;;;;;4.30;1.80;;;;;;;14.29;62.30;98473.13;106447;1278;22840;-82
2022/05/13 04:54:23;;;;;;;3.60;1.70;;;;;;;14.43;62.16;98472.19;105974;1279;137739;-83
2022/05/13 04:56:50;;;;;;;6.40;1.70;;;;;;;14.53;61.53;98474.73;106034;1279;22553;-83
2022/05/13 04:59:17;;;;;;;4.50;1.50;;;;;;;14.64;61.15;98483.11;106120;1279;137908;-83
2022/05/13 05:01:44;;;;;;;8.80;2.80;;;;;;;14.73;60.36;98485.77;106685;1277;22615;-83
2022/05/13 05:04:11;;;;;;;11.60;2.90;;;;;;;14.81;61.90;98496.70;106609;1277;24312;-83
2022/05/13 05:06:38;;;;;;;9.00;2.80;;;;;;;14.87;61.98;98496.54;106364;1278;137919;-83
2022/05/13 05:09:05;;;;;;;10.20;2.60;;;;;;;14.92;62.16;98499.39;106312;1277;25247;-83
2022/05/13 05:11:32;;;;;;;5.60;2.30;;;;;;;14.95;62.05;98493.42;107239;1277;137918;-81
2022/05/13 05:13:59;;;;;;;10.30;3.20;;;;;;;14.95;62.54;98486.12;107188;1277;22560;-82
2022/05/13 05:16:41;;;;;;;9.10;2.80;;;;;;;15.00;62.66;98491.77;107236;1277;22694;-82
2022/05/13 05:19:07;;;;;;;8.90;2.50;;;;;;;15.06;62.85;98496.83;106617;1278;137409;-82
2022/05/13 05:21:37;;;;;;;8.90;2.50;;;;;;;15.12;62.86;98488.00;106632;1277;25583;-81
2022/05/13 05:24:04;;;;;;;6.30;2.70;;;;;;;15.18;63.18;98478.17;106237;1278;137593;-82
2022/05/13 05:26:32;;;;;;;7.30;2.30;;;;;;;15.25;63.70;98481.63;106421;1278;22607;-82
2022/05/13 05:28:58;;;;;;;12.60;2.30;;;;;;;15.33;63.87;98476.20;106699;1280;138665;-83
2022/05/13 05:31:39;;;;;;;16.40;2.50;;;;;;;15.40;64.12;98474.05;106614;1278;22541;-82
2022/05/13 05:34:06;;;;;;;8.50;2.60;;;;;;;15.48;64.05;98469.76;106371;1277;22692;-82
2022/05/13 05:36:35;;;;;;;19.70;2.70;;;;;;;15.57;64.06;98477.53;106643;1277;137901;-82
2022/05/13 05:39:02;;;;;;;12.70;2.80;;;;;;;15.65;63.86;98477.75;106532;1277;25848;-82
2022/05/13 05:41:30;;;;;;;13.60;2.90;;;;;;;15.72;63.83;98476.69;106795;1277;138841;-82
2022/05/13 05:43:57;;;;;;;17.50;3.50;;;;;;;15.80;63.54;98472.02;106630;1277;25324;-83
2022/05/13 05:46:24;;;;;;;23.90;3.30;;;;;;;15.86;63.00;98474.21;106589;1277;23249;-82
2022/05/13 05:48:51;;;;;;;11.90;2.40;;;;;;;15.88;61.91;98476.89;106871;1277;137843;-82
2022/05/13 05:51:18;;;;;;;15.00;2.70;;;;;;;15.84;60.48;98480.91;107070;1280;25446;-82
2022/05/13 05:59:08;;;;;;;18.30;3.60;;;;;;;15.96;59.64;98474.45;106540;1277;137932;-82
2022/05/13 06:01:35;;;;;;;19.20;3.40;;;;;;;16.03;59.36;98474.42;107498;1277;22540;-82
2022/05/13 06:04:02;;;;;;;28.00;4.10;;;;;;;16.10;59.24;98482.86;106971;1277;22554;-81
2022/05/13 06:06:29;;;;;;;29.40;5.10;;;;;;;16.19;59.40;98483.59;106714;1277;138331;-82
2022/05/13 06:08:58;;;;;;;39.50;5.60;;;;;;;16.26;59.34;98483.17;107252;1280;22566;-82
2022/05/13 06:11:26;;;;;;;;;;;;;;;16.32;59.34;98481.98;106641;1277;137861;-82
2022/05/13 06:13:53;;;;;;;41.50;4.10;;;;;;;16.37;58.80;98482.14;106393;1280;24402;-82
2022/05/13 06:16:25;;;;;;;30.30;4.00;;;;;;;16.42;58.53;98482.92;106927;1277;22710;-82
2022/05/13 06:18:54;;;;;;;20.00;2.80;;;;;;;16.49;58.22;98478.55;107163;1277;138253;-82
2022/05/13 06:21:21;;;;;;;8.20;2.90;;;;;;;16.55;57.74;98478.20;107232;1277;22608;-82
2022/05/13 06:23:50;;;;;;;;;;;;;;;16.61;56.73;98483.27;107015;1277;141337;-82
2022/05/13 06:26:17;;;;;;;8.30;2.90;;;;;;;16.67;56.22;98479.88;107167;1277;25457;-82
2022/05/13 06:28:44;;;;;;;12.10;3.70;;;;;;;16.75;55.57;98486.86;106686;1277;22556;-82
2022/05/13 06:31:11;;;;;;;11.80;3.80;;;;;;;16.86;55.56;98493.05;106846;1277;137566;-82
2022/05/13 06:33:38;;;;;;;18.30;3.40;;;;;;;16.99;55.53;98492.67;106538;1280;25321;-82
2022/05/13 06:36:07;;;;;;;16.90;4.00;;;;;;;17.15;54.22;98485.25;106186;1280;137856;-82
2022/05/13 06:38:34;;;;;;;14.00;3.60;;;;;;;17.33;53.44;98478.30;108026;1278;23482;-82
2022/05/13 06:41:01;;;;;;;11.80;3.50;;;;;;;17.44;53.08;98473.44;106803;1280;138583;-83
2022/05/13 06:43:29;;;;;;;12.80;4.10;;;;;;;17.54;52.47;98474.10;107064;1277;23739;-82
2022/05/13 06:45:56;;;;;;;10.60;3.40;;;;;;;17.66;52.51;98478.27;107170;1277;22558;-82
2022/05/13 06:48:25;;;;;;;8.50;3.20;;;;;;;17.76;53.27;98473.27;107291;1277;138040;-82
2022/05/13 06:50:52;;;;;;;8.20;3.20;;;;;;;17.82;52.68;98478.62;106754;1277;25538;-82
2022/05/13 06:53:21;;;;;;;13.30;3.50;;;;;;;17.89;51.38;98476.09;106788;1277;137854;-82
2022/05/13 06:55:49;;;;;;;14.30;3.70;;;;;;;17.96;51.26;98470.70;106851;1277;22615;-82
2022/05/13 06:58:16;;;;;;;10.60;3.60;;;;;;;18.04;51.36;98469.15;106500;1280;25323;-82
2022/05/13 07:00:44;;;;;;;13.40;3.50;;;;;;;18.13;51.68;98470.96;106433;1277;138057;-81
2022/05/13 07:03:16;;;;;;;12.20;3.90;;;;;;;18.26;50.63;98473.16;106751;1277;22572;-82
2022/05/13 07:05:57;;;;;;;12.40;3.70;;;;;;;18.42;49.42;98463.58;106338;1277;137764;-81
2022/05/13 07:08:38;;;;;;;10.70;3.30;;;;;;;18.59;48.76;98463.46;106710;1277;22604;-80
2022/05/13 07:11:06;;;;;;;13.90;3.40;;;;;;;18.73;48.21;98467.07;106393;1277;138325;-79
2022/05/13 07:13:34;;;;;;;12.20;3.60;;;;;;;18.83;47.39;98473.84;106081;1278;25628;-81
2022/05/13 07:16:02;;;;;;;11.00;3.60;;;;;;;18.88;46.78;98474.75;106565;1280;22538;-80
2022/05/13 07:18:29;;;;;;;12.30;4.10;;;;;;;18.92;46.87;98465.92;106765;1278;138052;-80
2022/05/13 07:20:56;;;;;;;10.90;3.00;;;;;;;19.00;46.57;98463.31;106370;1277;24323;-81
2022/05/13 07:23:22;;;;;;;10.30;3.00;;;;;;;19.12;46.33;98457.81;106429;1279;137909;-81
2022/05/13 07:25:50;;;;;;;14.00;3.70;;;;;;;19.24;46.40;98457.35;106558;1277;23993;-81
2022/05/13 07:28:17;;;;;;;10.10;3.00;;;;;;;19.33;46.31;98453.48;106813;1277;23489;-81
2022/05/13 07:30:46;;;;;;;10.70;3.10;;;;;;;19.42;46.00;98443.13;106317;1276;137996;-82
2022/05/13 07:33:13;;;;;;;;;;;;;;;19.51;45.72;98436.54;106810;1276;22543;-83
2022/05/13 07:35:40;;;;;;;9.80;3.90;;;;;;;19.60;45.43;98432.73;108302;1277;124091;-84
2022/05/13 07:38:08;;;;;;;8.30;3.10;;;;;;;19.71;45.78;98438.30;107455;1276;22999;-84
2022/05/13 07:43:17;;;;;;;11.10;3.00;;;;;;;19.95;45.09;98434.36;106229;1279;137517;-87
2022/05/13 07:45:45;;;;;;;11.10;2.40;;;;;;;20.09;44.67;98441.20;106423;1280;22837;-87
2022/05/13 07:48:12;;;;;;;7.80;2.30;;;;;;;20.25;43.85;98445.95;106188;1280;137777;-87
2022/05/13 07:50:39;;;;;;;8.40;2.30;;;;;;;20.33;42.29;98447.34;106227;1280;22623;-84
2022/05/13 07:53:06;;;;;;;6.50;2.10;;;;;;;20.40;42.42;98443.60;106147;1278;137823;-82
2022/05/13 07:55:33;;;;;;;15.10;3.30;;;;;;;20.49;42.22;98444.05;106327;1279;22549;-84
2022/05/13 07:58:01;;;;;;;10.80;2.60;;;;;;;20.61;41.53;98438.44;106556;1279;23773;-82
2022/05/13 08:00:32;;;;;;;8.30;2.30;;;;;;;20.70;41.63;98433.20;106535;1279;137914;-85
2022/05/13 08:03:05;;;;;;;6.10;2.30;;;;;;;20.75;42.39;98427.73;106761;1279;23138;-85
2022/05/13 08:05:38;;;;;;;11.00;2.40;;;;;;;20.80;43.21;98436.02;106117;1280;137742;-85
2022/05/13 08:08:09;;;;;;;13.20;2.90;;;;;;;20.93;41.83;98438.24;106743;1278;23657;-85
2022/05/13 08:10:39;;;;;;;15.80;3.00;;;;;;;21.08;40.87;98436.50;106474;1280;25341;-84
2022/05/13 08:13:07;;;;;;;21.30;3.30;;;;;;;21.24;40.49;98435.16;106397;1277;138176;-85
2022/05/13 08:15:34;;;;;;;16.70;4.10;;;;;;;21.35;40.11;98432.33;106141;1278;22999;-85
2022/05/13 08:18:01;;;;;;;10.00;2.50;;;;;;;21.46;40.41;98437.66;106305;1278;138338;-85
2022/05/13 08:20:28;;;;;;;15.10;3.50;;;;;;;21.60;40.41;98440.25;106263;1278;22546;-85
2022/05/13 08:22:55;;;;;;;12.60;2.90;;;;;;;21.77;40.87;98433.36;106221;1279;138265;-84
2022/05/13 08:25:23;;;;;;;13.10;2.60;;;;;;;21.80;40.23;98432.59;106246;1280;22575;-85
2022/05/13 08:27:50;;;;;;;14.50;3.00;;;;;;;21.71;39.82;98434.66;106531;1277;22552;-85
2022/05/13 08:30:18;;;;;;;20.60;2.80;;;;;;;21.82;40.68;98434.40;106131;1280;138383;-87
2022/05/13 08:32:45;;;;;;;14.70;2.60;;;;;;;21.96;40.24;98431.71;106213;1280;22859;-84
2022/05/13 08:35:14;;;;;;;19.50;2.90;;;;;;;22.07;40.31;98424.59;106235;1279;138734;-84
2022/05/13 08:37:43;;;;;;;;;;;;;;;22.17;40.24;98428.59;106764;1279;22589;-84
2022/05/13 08:40:25;;;;;;;8.90;2.60;;;;;;;22.25;39.81;98426.18;106053;1280;23913;-84
2022/05/13 08:42:53;;;;;;;9.70;2.00;;;;;;;22.34;39.29;98425.23;106239;1280;137558;-83
2022/05/13 08:45:21;;;;;;;11.20;2.30;;;;;;;22.35;38.52;98428.93;106514;1277;22556;-83
2022/05/13 08:47:58;;;;;;;11.20;2.00;;;;;;;22.37;38.36;98436.20;106532;1277;137982;-83
2022/05/13 08:50:40;;;;;;;11.30;2.20;;;;;;;22.35;37.69;98430.84;106944;1277;23426;-83
2022/05/13 08:53:29;;;;;;;14.50;2.30;;;;;;;22.34;37.80;98424.02;106464;1277;138841;-83
2022/05/13 08:56:05;;;;;;;6.60;1.80;;;;;;;22.35;38.01;98420.54;106492;1278;22719;-84
2022/05/13 08:58:42;;;;;;;7.90;2.00;;;;;;;22.39;37.99;98421.56;106241;1277;22651;-84
2022/05/13 09:01:14;;;;;;;9.90;2.30;;;;;;;22.43;37.83;98422.24;106446;1280;137466;-84
2022/05/13 09:03:53;;;;;;;13.50;2.20;;;;;;;22.46;38.24;98424.61;106476;1277;22685;-84
2022/05/13 09:06:48;;;;;;;9.80;2.50;;;;;;;22.51;38.13;98423.80;106337;1278;137986;-84
2022/05/13 09:09:15;;;;;;;11.90;2.70;;;;;;;22.59;38.37;98422.10;106838;1277;22554;-84
2022/05/13 09:11:59;;;;;;;14.30;2.90;;;;;;;22.65;38.69;98421.52;106331;1278;137722;-84
2022/05/13 09:14:29;;;;;;;8.70;2.10;;;;;;;22.67;38.67;98421.30;106614;1280;23922;-83
2022/05/13 09:17:14;;;;;;;9.00;2.00;;;;;;;22.66;38.53;98423.94;106171;1280;137779;-85
2022/05/13 09:19:57;;;;;;;11.00;2.10;;;;;;;22.64;38.82;98420.54;106475;1280;22528;-84
2022/05/13 09:22:39;;;;;;;12.00;2.30;;;;;;;22.67;38.86;98413.59;106756;1279;22545;-85
2022/05/13 09:25:15;;;;;;;9.40;2.40;;;;;;;22.70;38.86;98413.36;106623;1277;138254;-86
2022/05/13 09:28:01;;;;;;;11.90;2.30;;;;;;;22.85;39.05;98414.02;106395;1278;22576;-84
2022/05/13 09:30:37;;;;;;;12.00;2.50;;;;;;;22.98;38.36;98413.34;106338;1277;138150;-84
2022/05/13 09:33:23;;;;;;;10.90;2.20;;;;;;;23.11;37.93;98410.35;106554;1277;25310;-85
2022/05/13 09:35:56;;;;;;;6.70;1.80;;;;;;;23.30;37.93;98413.27;106755;1277;138426;-85
2022/05/13 09:38:27;;;;;;;10.60;2.30;;;;;;;23.40;38.65;98408.04;106679;1280;22545;-84
2022/05/13 09:41:07;;;;;;;6.90;1.80;;;;;;;23.55;37.90;98400.61;106476;1277;137860;-84
2022/05/13 09:43:38;;;;;;;8.30;2.10;;;;;;;23.69;37.25;98398.10;106731;1277;22558;-84
2022/05/13 09:46:11;;;;;;;10.40;2.00;;;;;;;23.74;36.41;98400.98;106709;1278;30338;-84
2022/05/13 09:48:53;;;;;;;15.60;2.30;;;;;;;23.82;35.97;98396.33;106665;1277;137899;-84
2022/05/13 09:51:49;;;;;;;9.20;2.10;;;;;;;23.93;35.88;98393.05;106342;1277;22559;-83
2022/05/13 09:54:33;;;;;;;11.20;2.00;;;;;;;23.90;35.15;98386.98;106018;1278;137623;-83
2022/05/13 09:57:14;;;;;;;10.30;2.30;;;;;;;23.93;35.34;98385.98;106794;1278;22652;-84
2022/05/13 09:59:45;;;;;;;11.30;2.30;;;;;;;24.09;34.53;98384.60;106432;1278;137531;-85
2022/05/13 10:02:34;;;;;;;7.00;2.00;;;;;;;24.19;33.85;98382.23;106546;1278;22547;-85
2022/05/13 10:05:16;;;;;;;11.00;1.90;;;;;;;24.26;33.65;98371.96;106554;1277;137918;-84
2022/05/13 10:07:49;;;;;;;13.60;2.20;;;;;;;24.25;33.04;98368.66;106556;1276;24230;-83
2022/05/13 10:15:57;;;;;;;6.10;1.50;;;;;;;24.28;33.17;98361.33;106568;1280;22630;-84
2022/05/13 10:18:27;;;;;;;6.50;1.40;;;;;;;24.36;32.68;98357.62;106215;1279;137765;-84
2022/05/13 10:21:14;;;;;;;8.20;1.70;;;;;;;24.40;31.56;98354.41;106269;1280;25258;-83
2022/05/13 10:24:14;;;;;;;14.70;2.20;;;;;;;24.43;31.99;98350.48;106395;1280;137647;-84
2022/05/13 10:26:43;;;;;;;5.80;2.50;;;;;;;24.51;31.51;98342.52;106493;1277;25258;-83
2022/05/13 10:29:18;;;;;;;6.10;1.70;;;;;;;24.57;31.85;98337.58;106603;1277;137728;-83
2022/05/13 10:31:47;;;;;;;11.70;2.60;;;;;;;24.65;31.76;98333.59;106563;1277;24243;-83
2022/05/13 10:34:34;;;;;;;5.50;1.60;;;;;;;24.76;32.72;98331.65;106266;1278;22903;-84
2022/05/13 10:37:10;;;;;;;8.20;1.60;;;;;;;24.98;31.90;98324.82;106866;1277;137678;-84
2022/05/13 10:39:48;;;;;;;13.10;1.70;;;;;;;25.16;31.72;98321.79;106979;1277;22583;-84
2022/05/13 10:42:25;;;;;;;7.90;1.40;;;;;;;25.28;31.67;98315.60;106366;1277;137801;-84
2022/05/13 10:44:59;;;;;;;8.60;1.50;;;;;;;25.35;31.91;98310.27;106919;1277;24226;-84
2022/05/13 10:47:43;;;;;;;6.00;1.80;;;;;;;25.35;31.98;98312.27;107048;1278;137801;-84
2022/05/13 10:50:22;;;;;;;8.00;1.60;;;;;;;25.23;31.70;98315.73;106203;1280;22600;-83
2022/05/13 10:53:09;;;;;;;6.60;1.40;;;;;;;25.06;31.08;98315.52;106961;1278;22816;-83
2022/05/13 10:55:43;;;;;;;5.80;1.70;;;;;;;25.11;31.12;98309.03;106989;1277;137290;-83
2022/05/13 10:58:28;;;;;;;7.20;1.70;;;;;;;25.15;30.93;98303.91;106631;1277;22652;-83
2022/05/13 11:01:09;;;;;;;5.40;1.40;;;;;;;25.25;31.11;98299.17;106891;1277;137668;-83
2022/05/13 11:03:50;;;;;;;12.00;2.00;;;;;;;25.34;30.01;98294.31;106389;1277;22581;-83
2022/05/13 11:06:29;;;;;;;10.00;1.50;;;;;;;25.45;30.50;98295.55;106468;1277;137862;-83
2022/05/13 11:09:19;;;;;;;7.90;2.00;;;;;;;25.52;30.26;98289.88;106248;1277;22696;-84
2022/05/13 11:11:46;;;;;;;5.90;1.80;;;;;;;25.68;30.83;98283.13;106392;1277;137992;-85
2022/05/13 11:14:37;;;;;;;10.40;2.30;;;;;;;25.86;30.96;98281.38;106420;1278;24533;-83
2022/05/13 11:17:18;;;;;;;5.80;1.40;;;;;;;26.03;30.86;98281.69;107004;1278;23353;-84
2022/05/13 11:20:02;;;;;;;9.10;2.30;;;;;;;26.19;30.68;98280.89;106749;1277;137532;-83
2022/05/13 11:22:39;;;;;;;3.40;1.50;;;;;;;26.27;29.84;98275.14;106560;1277;22548;-85
2022/05/13 11:28:12;;;;;;;6.00;2.30;;;;;;;26.43;29.79;98268.75;106724;1277;24230;-84
2022/05/13 11:30:47;;;;;;;2.50;1.40;;;;;;;26.56;29.84;98269.19;106759;1277;137618;-84
2022/05/13 11:33:36;;;;;;;5.70;1.60;;;;;;;26.61;29.03;98264.08;106411;1280;24326;-85
2022/05/13 11:36:02;;;;;;;;;;;;;;;26.47;28.46;98262.96;106549;1278;137843;-84
2022/05/13 11:38:51;;;;;;;5.60;1.80;;;;;;;26.13;29.23;98267.31;106697;1277;30377;-84
2022/05/13 11:41:23;;;;;;;6.30;1.50;;;;;;;26.01;30.64;98262.56;106552;1277;22727;-84
2022/05/13 11:43:59;;;;;;;6.40;1.90;;;;;;;26.03;30.40;98262.88;106418;1277;137630;-85
2022/05/13 11:46:40;;;;;;;7.10;1.80;;;;;;;26.21;30.29;98262.61;106557;1277;22608;-83
2022/05/13 11:49:22;;;;;;;4.90;2.00;;;;;;;26.39;30.49;98252.83;106530;1280;137490;-86
2022/05/13 11:51:50;;;;;;;7.70;2.00;;;;;;;26.54;30.22;98251.03;106825;1277;22627;-84
2022/05/13 11:54:25;;;;;;;8.20;2.20;;;;;;;26.81;30.17;98247.02;106884;1281;137783;-86
2022/05/13 11:57:23;;;;;;;6.40;2.20;;;;;;;26.99;29.80;98241.63;106435;1277;25339;-86
2022/05/13 12:00:18;;;;;;;5.60;2.40;;;;;;;27.18;29.36;98234.61;106237;1277;137882;-84
2022/05/13 12:02:45;;;;;;;7.30;2.30;;;;;;;27.35;29.01;98219.95;106399;1277;22703;-83
2022/05/13 12:05:18;;;;;;;3.80;2.20;;;;;;;27.34;29.81;98221.46;106637;1277;24432;-83
2022/05/13 12:07:52;;;;;;;8.90;2.40;;;;;;;27.56;29.32;98219.65;106350;1277;137776;-85
2022/05/13 12:10:29;;;;;;;11.10;2.50;;;;;;;27.77;29.04;98213.73;106597;1278;22698;-84
2022/05/13 12:13:10;;;;;;;3.90;2.10;;;;;;;27.70;28.94;98210.94;106479;1278;137777;-84
2022/05/13 12:15:59;;;;;;;5.00;1.70;;;;;;;27.61;28.75;98210.18;107144;1277;22563;-84